AirNav   Airventure
 
 1173 users online  

AZ15 Lava Falls Heliport
Supai Village, Arizona, USA


FAA INFORMATION EFFECTIVE 20 JULY 2017

Location

FAA Identifier: AZ15
Lat/Long: 36-11-29.9330N / 113-05-32.7370W
36-11.498883N / 113-05.545617W
36.1916481 / -113.0924269
(estimated)
Elevation: 1720 ft. / 524 m (estimated)
Variation: 14E (1985)
From city: 19 miles W of SUPAI VILLAGE, AZ
Time zone: UTC -7 (year round; does not observe DST)
Zip code: 86434

Heliport Operations

Heliport use: Private use. Permission required prior to landing
Activation date: 06/1979
Control tower: no
ARTCC: LOS ANGELES CENTER
FSS: PRESCOTT FLIGHT SERVICE STATION
Attendance: IREG
Wind indicator: no
Segmented circle: no
Landing fee: yes

Heliport Services

Runway Information

Helipad H1

Dimensions: 30 x 30 ft. / 9 x 9 m
Surface: gravel
Traffic pattern: leftleft

Heliport Ownership and Management from official FAA records

Ownership: Publicly-owned
Owner: HUALAPAI INDIAN TRIBE
P.O. BOX 179
PEACH SPRINGS, AZ 86434
Phone 602-769-2216
Manager: HUALAPAI INDIAN TRIBE
PO BOX 168
PEACH SPRINGS, AZ 86434
Phone 602-769-2216

Instrument Procedures

There are no published instrument procedures at AZ15.

Some nearby airports with instrument procedures:

KAZC - Colorado City Municipal Airport (46 nm N)
KGCN - Grand Canyon National Park Airport (48 nm E)
KSGU - St George Regional Airport (55 nm N)
KKNB - Kanab Municipal Airport (56 nm NE)
40G - Valle Airport (56 nm SE)
 
Loc | Ops | Rwys | IFR | FBO | Links
Com | Nav | Svcs | Stats | Notes


 
Area around AZ15 (Lava Falls Heliport)
 
Road maps at: MapQuest Bing Google
 
Aerial photo
No photo
 
Sectional chart

 
Airport distance calculator
Flying to Lava Falls Heliport? Find the distance to fly.

From to AZ15

Sunrise and sunset
Times for 26-Jul-2017
 Local
(UTC-7)
 Zulu
(UTC)
Morning civil twilight05:0712:07
Sunrise05:3612:36
Sunset19:4202:42
Evening civil twilight20:1103:11

Current date and time
Zulu (UTC)  26-Jul-2017 23:19:42
Local (UTC-7)  26-Jul-2017 16:19:42
 
METAR
KAZC 
46nm N 
262255Z AUTO 00000KT 10SM CLR 31/14 A3022 RMK AO2 LTG DSNT NE
KGCN 
48nm E 
262254Z 26006KT 10SM CLR 27/11 A3032 RMK AO2 SLP173 T02720111
TAF
KGCN 
48nm E 
261737Z 2618/2718 VRB05KT P6SM FEW100 FM270300 24010KT P6SM SCT250
NOTAMs
Click for the latest NOTAMs
NOTAMs are issued by the DoD/FAA and will open in a separate window not controlled by AirNav.

 

 
 

Would you like to see your business listed on this page?

 If your business provides an interesting product or service to pilots, flight crews, aircraft, or users of the Lava Falls Heliport, you should consider listing it here.  To start the listing process, click on the button below
 
Add a business
 

Other Pages about Lava Falls Heliport

Update a link
 
Copyright © AirNav, LLC. All rights reserved. Privacy Policy  Contact